Time;durP1;ratioP1;P1;durP2;ratioP2;P2;SDS_P1;SDS_P2;PMS_P1;PMS_P2;Temp;Humidity;BMP_temperature;BMP_pressure;BME280_temperature;BME280_humidity;BME280_pressure;Samples;Min_cycle;Max_cycle;Signal;HPM_P1;HPM_P2
2023/04/27 00:07:43;;;;;;;6.43;2.95;;;20.80;34.10;;;;;;20835283;28;20049;-56
2023/04/27 00:17:44;;;;;;;5.00;1.92;;;20.60;34.80;;;;;;20834669;28;20049;-56
2023/04/27 00:27:46;;;;;;;5.53;2.70;;;20.40;34.90;;;;;;20834798;28;20073;-57
2023/04/27 00:37:48;;;;;;;8.02;3.33;;;20.30;35.20;;;;;;20833893;28;20537;-58
2023/04/27 00:47:49;;;;;;;6.35;2.83;;;20.30;35.70;;;;;;20831339;28;20041;-56
2023/04/27 00:57:51;;;;;;;5.30;2.35;;;20.10;36.30;;;;;;20831281;28;20055;-57
2023/04/27 01:07:52;;;;;;;7.25;2.42;;;19.90;36.30;;;;;;20832092;28;20079;-59
2023/04/27 01:18:00;;;;;;;6.75;3.67;;;19.90;36.70;;;;;;20831276;28;20402;-58
2023/04/27 01:28:02;;;;;;;9.18;4.50;;;19.90;37.10;;;;;;20829846;28;20106;-58
2023/04/27 01:38:04;;;;;;;4.57;1.70;;;19.80;37.50;;;;;;20829562;28;20045;-56
2023/04/27 01:48:06;;;;;;;3.35;1.83;;;19.70;38.10;;;;;;20829116;28;20046;-57
2023/04/27 01:58:08;;;;;;;4.82;1.77;;;19.70;38.20;;;;;;20834831;28;20132;-57
2023/04/27 02:08:09;;;;;;;3.97;1.67;;;19.50;38.40;;;;;;20845577;28;20457;-56
2023/04/27 02:18:10;;;;;;;5.18;1.88;;;19.40;38.70;;;;;;20843695;28;20514;-56
2023/04/27 02:28:12;;;;;;;4.40;1.60;;;19.40;39.20;;;;;;20843684;28;20469;-57
2023/04/27 02:38:14;;;;;;;4.78;1.20;;;19.30;40.00;;;;;;20841813;28;20045;-56
2023/04/27 02:48:16;;;;;;;2.55;1.33;;;19.20;40.40;;;;;;20842423;28;20132;-56
2023/04/27 02:58:17;;;;;;;4.35;1.45;;;18.90;40.50;;;;;;20841709;28;20049;-57
2023/04/27 03:08:19;;;;;;;2.67;1.20;;;18.60;40.60;;;;;;20840188;28;20045;-57
2023/04/27 03:18:20;;;;;;;12.35;1.42;;;18.60;40.60;;;;;;20839314;28;20045;-57
2023/04/27 03:28:22;;;;;;;3.47;1.15;;;18.50;40.50;;;;;;20838338;28;20049;-56
2023/04/27 03:38:24;;;;;;;2.03;1.20;;;18.40;41.00;;;;;;20837453;28;20075;-57
2023/04/27 03:48:26;;;;;;;2.63;1.02;;;18.30;41.70;;;;;;20837824;28;20409;-56
2023/04/27 03:58:27;;;;;;;4.00;1.20;;;18.20;42.40;;;;;;20835314;28;20053;-56
2023/04/27 04:08:29;;;;;;;2.30;1.20;;;18.00;42.80;;;;;;20836637;28;20479;-57
2023/04/27 04:18:31;;;;;;;3.58;1.50;;;18.00;43.30;;;;;;20833572;28;20057;-57
2023/04/27 04:28:32;;;;;;;2.72;1.50;;;17.80;45.30;;;;;;20833877;28;20518;-56
2023/04/27 04:38:34;;;;;;;3.65;1.83;;;17.70;45.00;;;;;;20833809;28;20045;-56
2023/04/27 04:48:36;;;;;;;3.97;1.80;;;17.70;45.00;;;;;;20831699;28;20048;-57
2023/04/27 04:58:38;;;;;;;6.13;1.80;;;17.70;45.00;;;;;;20830470;28;20076;-59
2023/04/27 05:08:40;;;;;;;3.17;1.45;;;17.60;45.00;;;;;;20831460;28;20096;-56
2023/04/27 05:18:41;;;;;;;4.65;1.85;;;17.40;45.10;;;;;;20829475;28;20414;-58
2023/04/27 05:28:44;;;;;;;2.97;1.35;;;17.30;45.50;;;;;;20829268;28;20103;-58
2023/04/27 05:38:45;;;;;;;6.40;2.00;;;17.30;45.30;;;;;;20845322;28;20049;-58
2023/04/27 05:48:46;;;;;;;5.75;2.10;;;17.40;45.20;;;;;;20847015;28;20077;-56
2023/04/27 05:58:48;;;;;;;3.47;2.20;;;17.50;45.30;;;;;;20846446;28;20049;-57
2023/04/27 06:08:49;;;;;;;6.50;2.80;;;17.60;45.40;;;;;;20845731;28;20045;-57
2023/04/27 06:18:51;;;;;;;6.25;2.70;;;17.60;45.60;;;;;;20843683;28;20107;-57
2023/04/27 06:28:55;;;;;;;6.05;1.85;;;17.70;45.50;;;;;;20842573;28;20140;-56
2023/04/27 06:38:56;;;;;;;6.50;2.10;;;17.80;45.60;;;;;;20841669;28;20042;-58
2023/04/27 06:48:58;;;;;;;5.53;2.45;;;18.20;44.30;;;;;;20840091;28;20049;-57
2023/04/27 06:58:59;;;;;;;6.43;2.30;;;18.50;44.10;;;;;;20840615;28;20478;-58
2023/04/27 07:09:01;;;;;;;5.50;2.15;;;18.90;43.20;;;;;;20839250;28;20053;-55
2023/04/27 07:19:02;;;;;;;11.48;3.70;;;19.20;42.90;;;;;;20838402;28;20049;-58
2023/04/27 07:29:04;;;;;;;11.32;2.85;;;19.90;41.50;;;;;;20839288;28;20503;-56
2023/04/27 07:39:06;;;;;;;4.30;2.17;;;20.70;38.90;;;;;;20838520;28;20168;-56
2023/04/27 07:49:09;;;;;;;3.50;1.87;;;21.60;35.20;;;;;;20837848;28;20059;-58
2023/04/27 07:59:10;;;;;;;15.13;3.80;;;22.00;34.70;;;;;;20835532;28;20049;-57
2023/04/27 08:09:12;;;;;;;7.28;2.83;;;22.40;34.80;;;;;;20836085;28;20129;-58
2023/04/27 08:19:13;;;;;;;10.60;2.92;;;22.20;35.00;;;;;;20834016;28;20045;-57
2023/04/27 08:29:15;;;;;;;13.25;2.08;;;22.10;33.50;;;;;;20834805;28;20049;-57
2023/04/27 08:39:17;;;;;;;4.60;1.60;;;22.40;33.10;;;;;;20833975;28;20479;-58
2023/04/27 08:49:19;;;;;;;5.15;1.90;;;22.60;32.20;;;;;;20832117;28;20049;-57
2023/04/27 08:59:21;;;;;;;6.05;2.67;;;22.70;32.00;;;;;;20832280;28;20049;-56
2023/04/27 09:09:23;;;;;;;11.85;3.03;;;23.00;32.10;;;;;;20831372;28;20517;-58
2023/04/27 09:19:29;;;;;;;5.47;1.88;;;23.20;32.10;;;;;;20830275;28;20409;-56
2023/04/27 09:29:37;;;;;;;7.07;2.10;;;23.40;30.60;;;;;;20830593;28;20054;-60
2023/04/27 09:39:40;;;;;;;7.38;2.00;;;23.60;31.30;;;;;;20822888;28;20041;-60
2023/04/27 09:49:41;;;;;;;5.82;1.73;;;24.10;30.00;;;;;;20812491;28;20100;-62
2023/04/27 09:59:57;;;;;;;5.87;2.20;;;24.10;30.60;;;;;;20814569;28;20471;-58
2023/04/27 10:10:03;;;;;;;8.95;2.20;;;24.70;29.70;;;;;;20811929;28;20046;-60
2023/04/27 10:20:07;;;;;;;38.70;4.43;;;25.10;28.90;;;;;;20828342;28;20057;-57
2023/04/27 10:30:11;;;;;;;7.20;1.90;;;24.90;29.70;;;;;;20841816;28;20407;-58
2023/04/27 10:40:16;;;;;;;10.68;2.88;;;25.00;29.60;;;;;;20836332;28;20064;-57
2023/04/27 10:50:17;;;;;;;6.07;2.53;;;25.10;29.80;;;;;;20827196;28;20049;-59
2023/04/27 11:00:43;;;;;;;6.77;2.00;;;25.20;28.70;;;;;;20809307;28;20083;-57
2023/04/27 11:10:49;;;;;;;8.18;2.17;;;25.60;27.80;;;;;;20826158;28;20407;-58
2023/04/27 11:20:52;;;;;;;9.30;3.92;;;25.90;28.20;;;;;;20835811;28;20049;-60
2023/04/27 11:31:00;;;;;;;5.30;1.92;;;26.20;27.60;;;;;;20813902;28;20049;-57
2023/04/27 11:41:06;;;;;;;8.60;1.40;;;26.90;25.60;;;;;;20807947;28;20472;-56
2023/04/27 11:51:11;;;;;;;5.07;1.70;;;27.40;25.10;;;;;;20837903;28;20053;-54
2023/04/27 12:01:13;;;;;;;7.35;2.33;;;27.70;24.80;;;;;;20836973;28;20533;-55
2023/04/27 12:11:15;;;;;;;5.55;2.42;;;27.60;24.80;;;;;;20835173;28;20049;-56
2023/04/27 12:21:17;;;;;;;7.32;2.33;;;27.90;24.50;;;;;;20833085;28;20050;-54
2023/04/27 12:31:23;;;;;;;6.20;1.60;;;28.20;24.50;;;;;;20832318;28;20057;-56
2023/04/27 12:41:24;;;;;;;6.22;2.15;;;28.40;24.20;;;;;;20831100;28;20046;-55
2023/04/27 12:51:29;;;;;;;8.00;1.95;;;28.50;23.60;;;;;;20831227;28;20041;-55
2023/04/27 13:01:31;;;;;;;4.15;1.80;;;28.60;23.00;;;;;;20831596;28;20060;-56
2023/04/27 13:11:32;;;;;;;4.45;1.67;;;28.70;23.10;;;;;;20830386;28;20054;-56
2023/04/27 13:21:34;;;;;;;3.03;1.98;;;28.90;23.60;;;;;;20829388;28;20064;-56
2023/04/27 13:31:36;;;;;;;2.65;1.50;;;28.90;22.90;;;;;;20828374;28;20050;-56
2023/04/27 13:41:37;;;;;;;5.63;1.70;;;29.10;22.10;;;;;;20828563;28;20046;-55
2023/04/27 13:51:39;;;;;;;3.30;1.83;;;29.20;21.90;;;;;;20829108;28;20049;-55
2023/04/27 14:01:40;;;;;;;6.00;2.67;;;29.50;22.20;;;;;;20845196;28;20049;-55
2023/04/27 14:11:42;;;;;;;5.47;2.88;;;29.60;22.20;;;;;;20844209;28;20560;-57
2023/04/27 14:21:43;;;;;;;6.07;3.58;;;30.10;21.40;;;;;;20842178;28;20049;-56
2023/04/27 14:31:46;;;;;;;5.55;3.33;;;30.10;21.20;;;;;;20843513;28;20490;-56
2023/04/27 14:41:47;;;;;;;3.83;1.50;;;30.00;21.10;;;;;;20841760;28;20056;-56
2023/04/27 14:51:49;;;;;;;6.00;2.25;;;29.80;21.00;;;;;;20842022;28;20095;-56
2023/04/27 15:01:50;;;;;;;4.53;1.95;;;29.90;20.90;;;;;;20841569;28;20049;-56
2023/04/27 15:11:51;;;;;;;4.28;2.03;;;30.00;20.90;;;;;;20838776;28;20052;-55
2023/04/27 15:21:53;;;;;;;5.50;1.30;;;30.10;20.50;;;;;;20837609;28;20058;-56
2023/04/27 15:31:55;;;;;;;3.22;1.25;;;30.10;20.00;;;;;;20838837;28;20045;-55
2023/04/27 15:41:58;;;;;;;6.85;2.13;;;30.20;20.50;;;;;;20837031;28;20045;-54
2023/04/27 15:51:59;;;;;;;3.20;1.58;;;30.10;19.90;;;;;;20836368;28;20064;-56
2023/04/27 16:02:01;;;;;;;5.93;2.30;;;30.20;19.90;;;;;;20835500;28;20137;-54
2023/04/27 16:12:02;;;;;;;5.70;3.47;;;30.40;20.10;;;;;;20881409;28;20056;-57
2023/04/27 16:22:04;;;;;;;9.70;2.65;;;30.40;19.80;;;;;;20866471;28;20517;-56
2023/04/27 16:32:05;;;;;;;3.42;1.40;;;30.10;20.50;;;;;;20910531;28;20482;-57
2023/04/27 16:42:08;;;;;;;4.50;1.60;;;29.90;20.90;;;;;;20832388;28;20387;-59
2023/04/27 16:52:11;;;;;;;4.72;1.58;;;29.70;20.50;;;;;;20883951;28;20112;-58
2023/04/27 17:02:12;;;;;;;3.25;2.08;;;29.50;21.00;;;;;;20837809;28;20520;-57
2023/04/27 17:12:15;;;;;;;2.80;1.63;;;29.40;21.60;;;;;;20909460;28;20143;-57
2023/04/27 17:22:17;;;;;;;7.60;5.05;;;29.40;21.90;;;;;;20891557;28;20045;-61
2023/04/27 17:32:18;;;;;;;6.25;1.80;;;29.40;20.90;;;;;;20911946;28;20099;-57
2023/04/27 17:42:19;;;;;;;5.90;2.00;;;29.50;20.70;;;;;;20906096;28;20052;-57
2023/04/27 17:52:21;;;;;;;6.65;2.30;;;29.40;21.10;;;;;;20900677;28;20055;-57
2023/04/27 18:02:22;;;;;;;11.88;3.42;;;29.30;21.20;;;;;;20909317;28;20052;-56
2023/04/27 18:12:24;;;;;;;7.07;2.60;;;29.20;21.80;;;;;;20910632;28;20056;-57
2023/04/27 18:22:26;;;;;;;6.50;2.10;;;29.00;21.80;;;;;;20908933;28;20053;-56
2023/04/27 18:32:27;;;;;;;9.65;3.30;;;29.00;22.10;;;;;;20909805;28;20055;-57
2023/04/27 18:42:28;;;;;;;6.38;3.10;;;28.80;22.60;;;;;;20913404;28;20045;-57
2023/04/27 18:52:30;;;;;;;8.73;3.03;;;28.60;23.10;;;;;;20922362;28;20085;-58
2023/04/27 19:02:31;;;;;;;11.55;3.65;;;28.40;23.10;;;;;;20922658;28;20075;-56
2023/04/27 19:12:33;;;;;;;9.75;4.25;;;28.10;23.40;;;;;;20922682;28;20049;-59
2023/04/27 19:22:35;;;;;;;11.40;4.05;;;27.90;23.90;;;;;;20920891;28;20080;-59
2023/04/27 19:32:37;;;;;;;11.98;5.40;;;27.70;24.60;;;;;;20919613;28;20084;-56
2023/04/27 19:42:38;;;;;;;7.85;4.30;;;27.60;25.40;;;;;;20918161;28;20045;-58
2023/04/27 19:52:40;;;;;;;12.25;5.28;;;27.30;25.60;;;;;;20916987;28;20052;-58
2023/04/27 20:02:41;;;;;;;13.07;7.25;;;27.10;26.10;;;;;;20917015;28;20055;-56
2023/04/27 20:12:42;;;;;;;;;;;26.90;26.50;;;;;;20900049;28;20049;-56
2023/04/27 20:22:44;;;;;;;;;;;26.60;27.30;;;;;;20916434;28;19932;-56
2023/04/27 20:32:45;;;;;;;;;;;26.30;27.20;;;;;;20917349;28;19920;-55
2023/04/27 20:42:48;;;;;;;;;;;26.00;28.60;;;;;;20914761;28;19920;-56
2023/04/27 20:52:49;;;;;;;;;;;25.90;28.80;;;;;;20913292;28;19920;-56
2023/04/27 21:02:51;;;;;;;;;;;25.60;29.00;;;;;;20912694;28;19928;-56
2023/04/27 21:12:52;;;;;;;;;;;25.30;29.60;;;;;;20912916;28;19927;-58
2023/04/27 21:22:55;;;;;;;;;;;25.40;29.70;;;;;;20910669;28;19925;-58
2023/04/27 21:32:56;;;;;;;;;;;25.50;30.00;;;;;;20910726;28;19921;-58
2023/04/27 21:42:57;;;;;;;;;;;25.10;31.30;;;;;;20911167;28;19920;-57
2023/04/27 21:52:59;;;;;;;;;;;24.90;31.90;;;;;;20909469;28;19921;-56
2023/04/27 22:03:01;;;;;;;;;;;24.70;33.00;;;;;;20910543;28;20301;-57
2023/04/27 22:13:02;;;;;;;;;;;24.40;32.60;;;;;;20910250;28;19921;-56
2023/04/27 22:23:03;;;;;;;;;;;24.20;32.80;;;;;;20924813;28;19925;-55
2023/04/27 22:33:05;;;;;;;;;;;24.10;32.80;;;;;;20924194;28;19928;-55
2023/04/27 22:43:06;;;;;;;;;;;23.90;33.30;;;;;;20924622;28;20369;-55
2023/04/27 22:53:07;;;;;;;;;;;23.70;33.20;;;;;;20925404;28;19928;-57
2023/04/27 23:03:10;;;;;;;;;;;23.50;33.70;;;;;;20925923;28;19927;-56
2023/04/27 23:13:11;;;;;;;;;;;23.20;34.10;;;;;;20923883;28;19928;-57
2023/04/27 23:23:13;;;;;;;;;;;23.00;34.70;;;;;;20921834;28;19921;-56
2023/04/27 23:33:14;;;;;;;;;;;22.90;34.90;;;;;;20921680;28;19925;-57
2023/04/27 23:43:15;;;;;;;;;;;22.60;35.30;;;;;;20920268;28;19921;-55
2023/04/27 23:53:17;;;;;;;;;;;22.50;35.70;;;;;;20920957;28;20427;-58
